createdAt,value
2018-07-22T00:02:01.642Z,21.77
2018-07-22T00:04:29.781Z,21.57
2018-07-22T00:06:57.943Z,19.90
2018-07-22T00:09:26.492Z,19.33
2018-07-22T00:11:55.936Z,18.63
2018-07-22T00:14:24.107Z,18.30
2018-07-22T00:16:52.260Z,19.90
2018-07-22T00:19:20.378Z,19.20
2018-07-22T00:21:48.603Z,19.37
2018-07-22T00:24:16.980Z,19.00
2018-07-22T00:26:45.840Z,17.63
2018-07-22T00:29:14.012Z,19.63
2018-07-22T00:31:42.622Z,18.77
2018-07-22T00:34:11.660Z,17.77
2018-07-22T00:36:40.235Z,16.60
2018-07-22T00:39:10.104Z,17.07
2018-07-22T00:41:38.263Z,16.37
2018-07-22T00:44:06.605Z,18.23
2018-07-22T00:46:34.571Z,17.30
2018-07-22T00:49:03.483Z,16.97
2018-07-22T00:51:32.272Z,14.97
2018-07-22T00:54:00.436Z,15.23
2018-07-22T00:56:32.256Z,17.83
2018-07-22T00:59:00.684Z,15.40
2018-07-22T01:01:31.174Z,15.40
2018-07-22T01:03:59.694Z,15.13
2018-07-22T01:06:27.872Z,14.83
2018-07-22T01:08:56.315Z,15.87
2018-07-22T01:11:24.760Z,15.00
2018-07-22T01:13:53.912Z,15.67
2018-07-22T01:16:22.054Z,16.37
2018-07-22T01:18:50.562Z,15.10
2018-07-22T01:21:18.671Z,14.93
2018-07-22T01:23:47.192Z,15.20
2018-07-22T01:26:15.931Z,15.87
2018-07-22T01:28:44.108Z,16.60
2018-07-22T01:31:12.808Z,18.07
2018-07-22T01:33:40.993Z,20.97
2018-07-22T01:36:09.193Z,18.30
2018-07-22T01:38:38.816Z,19.80
2018-07-22T01:41:07.017Z,18.17
2018-07-22T01:43:36.176Z,17.47
2018-07-22T01:46:04.608Z,17.40
2018-07-22T01:48:32.740Z,16.90
2018-07-22T01:51:03.087Z,17.40
2018-07-22T01:53:31.248Z,17.00
2018-07-22T01:56:00.146Z,16.13
2018-07-22T01:58:29.191Z,16.03
2018-07-22T02:00:57.384Z,16.80
2018-07-22T02:03:29.284Z,15.27
2018-07-22T02:05:57.456Z,14.90
2018-07-22T02:08:25.591Z,14.90
2018-07-22T02:10:54.449Z,16.37
2018-07-22T02:13:23.448Z,17.50
2018-07-22T02:15:51.592Z,16.60
2018-07-22T02:18:20.575Z,16.27
2018-07-22T02:20:49.548Z,16.03
2018-07-22T02:23:18.068Z,14.93
2018-07-22T02:25:47.718Z,14.97
2018-07-22T02:28:15.891Z,14.20
2018-07-22T02:30:44.060Z,15.30
2018-07-22T02:33:12.281Z,15.90
2018-07-22T02:35:41.045Z,16.77
2018-07-22T02:38:09.540Z,17.33
2018-07-22T02:40:38.080Z,17.50
2018-07-22T02:43:06.245Z,18.30
2018-07-22T02:45:39.505Z,18.80
2018-07-22T02:48:08.136Z,19.70
2018-07-22T02:50:36.304Z,19.83
2018-07-22T02:53:04.480Z,22.80
2018-07-22T02:55:33.240Z,21.67
2018-07-22T02:58:01.800Z,21.90
2018-07-22T03:00:30.284Z,20.20
2018-07-22T03:02:58.692Z,20.93
2018-07-22T03:05:26.878Z,20.50
2018-07-22T03:07:55.544Z,20.47
2018-07-22T03:10:23.720Z,21.77
2018-07-22T03:12:52.036Z,21.00
2018-07-22T03:15:21.140Z,22.43
2018-07-22T03:17:50.384Z,22.60
2018-07-22T03:20:18.614Z,21.13
2018-07-22T03:22:47.157Z,22.20
2018-07-22T03:25:15.322Z,22.30
2018-07-22T03:27:43.468Z,23.57
2018-07-22T03:30:12.499Z,21.57
2018-07-22T03:32:40.651Z,22.40
2018-07-22T03:35:09.288Z,20.27
2018-07-22T03:37:37.464Z,21.87
2018-07-22T03:40:06.283Z,20.80
2018-07-22T03:42:36.096Z,21.53
2018-07-22T03:45:05.029Z,21.03
2018-07-22T03:47:34.207Z,22.60
2018-07-22T03:50:02.932Z,21.90
2018-07-22T03:52:32.072Z,21.77
2018-07-22T03:55:00.264Z,22.40
2018-07-22T03:57:28.391Z,22.57
2018-07-22T03:59:56.615Z,22.90
2018-07-22T04:02:25.537Z,21.20
2018-07-22T04:04:54.047Z,20.80
2018-07-22T04:07:22.535Z,21.07
2018-07-22T04:09:50.714Z,20.90
2018-07-22T04:12:19.302Z,19.60
2018-07-22T04:14:47.430Z,19.03
2018-07-22T04:17:15.887Z,18.33
2018-07-22T04:19:44.979Z,17.90
2018-07-22T04:22:13.162Z,16.07
2018-07-22T04:24:41.490Z,17.20
2018-07-22T04:27:09.900Z,19.50
2018-07-22T04:29:38.463Z,16.87
2018-07-22T04:32:06.648Z,15.67
2018-07-22T04:34:35.425Z,17.40
2018-07-22T04:37:03.599Z,17.00
2018-07-22T04:39:31.751Z,17.57
2018-07-22T04:42:00.029Z,16.80
2018-07-22T04:44:28.370Z,15.70
2018-07-22T04:46:56.515Z,15.33
2018-07-22T04:49:25.201Z,15.47
2018-07-22T04:51:56.722Z,15.70
2018-07-22T04:54:25.297Z,17.63
2018-07-22T04:56:53.200Z,17.50
2018-07-22T04:59:22.192Z,17.47
2018-07-22T05:01:50.388Z,17.77
2018-07-22T05:04:19.123Z,17.00
2018-07-22T05:06:48.592Z,16.83
2018-07-22T05:09:17.424Z,17.50
2018-07-22T05:11:46.240Z,18.50
2018-07-22T05:14:14.419Z,18.43
2018-07-22T05:16:42.616Z,19.07
2018-07-22T05:19:11.616Z,19.00
2018-07-22T05:21:39.781Z,19.37
2018-07-22T05:24:08.449Z,19.87
2018-07-22T05:26:37.116Z,19.70
2018-07-22T05:29:05.288Z,20.23
2018-07-22T05:31:34.428Z,20.03
2018-07-22T05:34:02.611Z,20.30
2018-07-22T05:36:30.814Z,20.63
2018-07-22T05:38:59.007Z,20.67
2018-07-22T05:41:27.188Z,20.93
2018-07-22T05:43:55.924Z,21.40
2018-07-22T05:46:25.556Z,19.20
2018-07-22T05:48:54.053Z,18.10
2018-07-22T05:51:22.733Z,19.33
2018-07-22T05:53:50.913Z,18.23
2018-07-22T05:56:19.081Z,17.30
2018-07-22T05:58:47.494Z,16.37
2018-07-22T06:01:15.643Z,17.50
2018-07-22T06:03:44.272Z,16.87
2018-07-22T06:06:12.448Z,17.60
2018-07-22T06:08:40.623Z,17.00
2018-07-22T06:11:09.299Z,17.50
2018-07-22T06:13:37.492Z,15.57
2018-07-22T06:16:06.469Z,17.57
2018-07-22T06:18:34.687Z,17.30
2018-07-22T06:21:02.819Z,17.27
2018-07-22T06:23:31.062Z,16.63
2018-07-22T06:25:59.180Z,16.07
2018-07-22T06:28:28.244Z,17.00
2018-07-22T06:30:56.448Z,16.20
2018-07-22T06:33:24.627Z,18.53
2018-07-22T06:35:53.124Z,16.70
2018-07-22T06:38:21.337Z,17.63
2018-07-22T06:40:50.111Z,16.20
2018-07-22T06:43:18.969Z,16.63
2018-07-22T06:45:47.692Z,17.07
2018-07-22T06:48:16.300Z,17.97
2018-07-22T06:50:45.385Z,17.60
2018-07-22T06:53:13.774Z,16.70
2018-07-22T06:55:42.255Z,16.20
2018-07-22T06:58:11.472Z,17.20
2018-07-22T07:00:39.645Z,16.90
2018-07-22T07:03:08.580Z,17.40
2018-07-22T07:05:37.819Z,18.60
2018-07-22T07:08:06.832Z,17.13
2018-07-22T07:10:36.447Z,17.10
2018-07-22T07:13:04.688Z,15.10
2018-07-22T07:15:33.232Z,15.80
2018-07-22T07:18:01.697Z,17.50
2018-07-22T07:20:29.904Z,16.07
2018-07-22T07:22:58.535Z,15.83
2018-07-22T07:25:27.508Z,15.77
2018-07-22T07:27:56.084Z,15.80
2018-07-22T07:30:24.264Z,18.50
2018-07-22T07:32:52.711Z,16.90
2018-07-22T07:35:20.852Z,14.97
2018-07-22T07:37:49.160Z,16.37
2018-07-22T07:40:17.866Z,15.50
2018-07-22T07:42:46.053Z,15.93
2018-07-22T07:45:16.140Z,14.50
2018-07-22T07:47:44.336Z,15.80
2018-07-22T07:50:12.524Z,17.07
2018-07-22T07:52:42.828Z,14.93
2018-07-22T07:55:12.036Z,16.20
2018-07-22T07:57:41.035Z,15.17
2018-07-22T08:00:10.260Z,16.10
2018-07-22T08:02:38.703Z,15.57
2018-07-22T08:05:07.619Z,16.10
2018-07-22T08:07:35.862Z,14.17
2018-07-22T08:10:04.926Z,14.93
2018-07-22T08:12:33.047Z,14.27
2018-07-22T08:15:01.957Z,14.10
2018-07-22T08:17:30.388Z,15.23
2018-07-22T08:19:58.531Z,15.20
2018-07-22T08:22:26.711Z,14.80
2018-07-22T08:24:55.447Z,13.00
2018-07-22T08:27:23.596Z,14.80
2018-07-22T08:29:52.368Z,14.00
2018-07-22T08:32:20.548Z,13.80
2018-07-22T08:34:49.050Z,15.27
2018-07-22T08:37:17.212Z,13.80
2018-07-22T08:39:45.820Z,17.20
2018-07-22T08:42:14.972Z,15.90
2018-07-22T08:44:43.845Z,13.87
2018-07-22T08:47:12.107Z,15.47
2018-07-22T08:49:41.700Z,15.43
2018-07-22T08:52:10.487Z,14.37
2018-07-22T08:54:38.988Z,15.80
2018-07-22T08:57:07.136Z,14.40
2018-07-22T08:59:35.681Z,15.13
2018-07-22T09:02:04.224Z,12.63
2018-07-22T09:04:32.352Z,13.50
2018-07-22T09:07:01.236Z,13.30
2018-07-22T09:09:30.113Z,11.10
2018-07-22T09:11:58.278Z,10.73
2018-07-22T09:14:26.473Z,9.83
2018-07-22T09:16:54.984Z,10.63
2018-07-22T09:19:23.182Z,8.97
2018-07-22T09:21:53.119Z,8.93
2018-07-22T09:24:21.644Z,10.57
2018-07-22T09:26:50.178Z,8.50
2018-07-22T09:29:18.356Z,8.73
2018-07-22T09:31:46.476Z,8.83
2018-07-22T09:34:15.447Z,10.27
2018-07-22T09:36:44.068Z,10.63
2018-07-22T09:39:13.135Z,9.67
2018-07-22T09:41:42.107Z,9.73
2018-07-22T09:44:10.634Z,9.97
2018-07-22T09:46:38.781Z,9.40
2018-07-22T09:49:07.816Z,8.30
2018-07-22T09:51:35.956Z,8.97
2018-07-22T09:54:05.612Z,8.53
2018-07-22T09:56:34.551Z,8.70
2018-07-22T09:59:03.643Z,8.70
2018-07-22T10:01:33.470Z,9.00
2018-07-22T10:04:01.932Z,9.00
2018-07-22T10:06:30.080Z,8.23
2018-07-22T10:08:58.539Z,7.67
2018-07-22T10:11:26.700Z,7.50
2018-07-22T10:13:55.337Z,7.07
2018-07-22T10:16:23.824Z,8.10
2018-07-22T10:18:52.302Z,8.30
2018-07-22T10:21:21.588Z,11.70
2018-07-22T10:23:50.335Z,9.67
2018-07-22T10:26:18.488Z,8.10
2018-07-22T10:28:47.522Z,8.70
2018-07-22T10:31:15.822Z,9.80
2018-07-22T10:33:44.332Z,8.37
2018-07-22T10:36:12.538Z,9.60
2018-07-22T10:38:41.456Z,8.70
2018-07-22T10:41:09.924Z,8.47
2018-07-22T10:43:38.153Z,8.83
2018-07-22T10:46:06.924Z,8.80
2018-07-22T10:48:35.445Z,8.30
2018-07-22T10:51:03.983Z,7.90
2018-07-22T10:53:32.592Z,8.53
2018-07-22T10:56:01.581Z,8.70
2018-07-22T10:58:29.744Z,8.53
2018-07-22T11:00:57.863Z,9.10
2018-07-22T11:03:27.537Z,7.93
2018-07-22T11:05:56.105Z,6.90
2018-07-22T11:08:24.832Z,7.20
2018-07-22T11:10:54.290Z,7.30
2018-07-22T11:13:23.545Z,7.33
2018-07-22T11:15:51.647Z,7.53
2018-07-22T11:18:19.834Z,7.17
2018-07-22T11:20:48.037Z,6.43
2018-07-22T11:23:16.215Z,7.23
2018-07-22T11:25:44.705Z,7.60
2018-07-22T11:28:13.153Z,8.60
2018-07-22T11:30:41.317Z,8.50
2018-07-22T11:33:09.523Z,7.60
2018-07-22T11:35:38.357Z,7.20
2018-07-22T11:38:06.736Z,7.40
2018-07-22T11:40:35.612Z,6.60
2018-07-22T11:43:05.234Z,6.83
2018-07-22T11:45:33.416Z,6.40
2018-07-22T11:48:01.832Z,6.60
2018-07-22T11:50:30.391Z,6.57
2018-07-22T11:52:58.492Z,7.17
2018-07-22T11:55:26.908Z,7.43
2018-07-22T11:57:55.039Z,7.20
2018-07-22T12:00:24.095Z,7.40
2018-07-22T12:02:52.240Z,7.00
2018-07-22T12:05:20.388Z,7.00
2018-07-22T12:07:48.645Z,7.57
2018-07-22T12:10:16.737Z,6.83
2018-07-22T12:12:45.220Z,6.60
2018-07-22T12:15:13.667Z,6.67
2018-07-22T12:17:42.725Z,6.60
2018-07-22T12:20:10.868Z,6.07
2018-07-22T12:22:39.532Z,6.73
2018-07-22T12:25:08.385Z,5.77
2018-07-22T12:27:36.559Z,5.70
2018-07-22T12:30:04.892Z,5.90
2018-07-22T12:32:36.749Z,6.80
2018-07-22T12:35:06.120Z,6.43
2018-07-22T12:37:34.321Z,6.80
2018-07-22T12:40:02.901Z,6.47
2018-07-22T12:42:31.068Z,6.33
2018-07-22T12:44:59.881Z,6.30
2018-07-22T12:47:28.594Z,6.37
2018-07-22T12:49:58.387Z,8.87
2018-07-22T12:52:27.519Z,8.27
2018-07-22T12:54:55.677Z,9.07
2018-07-22T12:57:23.859Z,7.77
2018-07-22T12:59:52.071Z,7.17
2018-07-22T13:02:20.210Z,7.03
2018-07-22T13:04:49.339Z,7.37
2018-07-22T13:07:17.928Z,8.40
2018-07-22T13:09:48.646Z,8.10
2018-07-22T13:12:16.822Z,8.65
2018-07-22T13:14:44.930Z,8.33
2018-07-22T13:17:13.374Z,8.67
2018-07-22T13:19:41.520Z,10.57
2018-07-22T13:22:10.233Z,12.60
2018-07-22T13:24:38.424Z,12.20
2018-07-22T13:27:08.124Z,14.73
2018-07-22T13:29:36.310Z,15.80
2018-07-22T13:32:04.872Z,15.17
2018-07-22T13:34:33.543Z,17.47
2018-07-22T13:37:01.772Z,18.70
2018-07-22T13:39:29.910Z,20.60
2018-07-22T13:41:58.080Z,19.27
2018-07-22T13:44:26.644Z,24.43
2018-07-22T13:46:54.800Z,22.97
2018-07-22T13:49:24.732Z,22.00
2018-07-22T13:51:52.988Z,22.23
2018-07-22T13:54:21.168Z,20.20
2018-07-22T13:56:50.825Z,20.83
2018-07-22T13:59:19.814Z,21.07
2018-07-22T14:01:47.953Z,21.63
2018-07-22T14:04:16.381Z,20.50
2018-07-22T14:06:44.617Z,23.60
2018-07-22T14:09:13.060Z,26.37
2018-07-22T14:11:41.289Z,22.33
2018-07-22T14:14:10.968Z,22.13
2018-07-22T14:16:39.449Z,22.03
2018-07-22T14:19:08.063Z,22.27
2018-07-22T14:21:37.257Z,21.80
2018-07-22T14:24:06.029Z,20.90
2018-07-22T14:26:34.192Z,19.00
2018-07-22T14:29:04.110Z,17.53
2018-07-22T14:31:32.934Z,18.40
2018-07-22T14:34:01.065Z,17.10
2018-07-22T14:36:29.229Z,17.20
2018-07-22T14:38:57.709Z,13.30
2018-07-22T14:41:25.860Z,11.57
2018-07-22T14:43:54.123Z,12.07
2018-07-22T14:46:22.583Z,12.33
2018-07-22T14:48:53.012Z,11.40
2018-07-22T14:51:21.182Z,11.40
2018-07-22T14:53:49.359Z,11.67
2018-07-22T14:56:18.451Z,10.60
2018-07-22T14:58:46.640Z,11.37
2018-07-22T15:01:15.928Z,10.40
2018-07-22T15:03:46.246Z,11.27
2018-07-22T15:06:14.398Z,10.43
2018-07-22T15:08:43.063Z,10.43
2018-07-22T15:11:11.844Z,10.00
2018-07-22T15:13:40.758Z,9.93
2018-07-22T15:16:09.544Z,9.17
2018-07-22T15:18:38.440Z,8.90
2018-07-22T15:21:07.342Z,9.20
2018-07-22T15:23:35.842Z,9.50
2018-07-22T15:26:04.348Z,8.20
2018-07-22T15:28:32.898Z,8.07
2018-07-22T15:31:01.196Z,8.73
2018-07-22T15:33:30.069Z,8.53
2018-07-22T15:35:58.820Z,9.00
2018-07-22T15:38:27.578Z,8.50
2018-07-22T15:40:55.734Z,10.13
2018-07-22T15:43:25.756Z,9.07
2018-07-22T15:45:54.551Z,7.03
2018-07-22T15:48:22.737Z,7.27
2018-07-22T15:50:50.935Z,8.40
2018-07-22T15:53:19.227Z,7.77
2018-07-22T15:55:47.924Z,7.20
2018-07-22T15:58:16.488Z,7.40
2018-07-22T16:00:45.564Z,7.00
2018-07-22T16:03:14.367Z,6.60
2018-07-22T16:05:42.524Z,7.20
2018-07-22T16:08:10.794Z,6.63
2018-07-22T16:10:39.284Z,6.40
2018-07-22T16:15:42.424Z,6.57
2018-07-22T16:18:10.608Z,7.27
2018-07-22T16:20:39.808Z,6.20
2018-07-22T16:23:08.814Z,7.60
2018-07-22T16:25:36.993Z,6.50
2018-07-22T16:28:05.224Z,6.10
2018-07-22T16:30:33.489Z,6.80
2018-07-22T16:33:01.700Z,6.87
2018-07-22T16:35:30.256Z,7.13
2018-07-22T16:37:58.446Z,6.97
2018-07-22T16:40:26.626Z,6.90
2018-07-22T16:42:54.844Z,6.73
2018-07-22T16:45:23.005Z,6.47
2018-07-22T16:47:51.504Z,7.00
2018-07-22T16:50:19.680Z,6.50
2018-07-22T16:52:48.783Z,5.73
2018-07-22T16:55:19.976Z,5.90
2018-07-22T16:57:48.758Z,5.70
2018-07-22T17:00:16.867Z,6.30
2018-07-22T17:02:45.696Z,5.97
2018-07-22T17:05:13.848Z,5.33
2018-07-22T17:07:42.049Z,5.83
2018-07-22T17:10:10.268Z,5.50
2018-07-22T17:12:38.484Z,5.50
2018-07-22T17:15:07.703Z,6.03
2018-07-22T17:17:35.848Z,6.47
2018-07-22T17:20:04.304Z,6.33
2018-07-22T17:22:32.486Z,6.67
2018-07-22T17:25:01.760Z,5.90
2018-07-22T17:27:30.376Z,5.23
2018-07-22T17:30:23.120Z,5.43
2018-07-22T17:32:53.284Z,5.77
2018-07-22T17:35:21.534Z,5.57
2018-07-22T17:37:49.782Z,5.87
2018-07-22T17:40:19.511Z,5.97
2018-07-22T17:42:47.697Z,5.83
2018-07-22T17:45:16.882Z,6.40
2018-07-22T17:47:45.464Z,7.67
2018-07-22T17:50:14.601Z,7.13
2018-07-22T17:52:43.495Z,6.30
2018-07-22T17:55:11.660Z,7.93
2018-07-22T17:57:39.865Z,7.77
2018-07-22T18:00:08.757Z,7.63
2018-07-22T18:02:41.587Z,7.60
2018-07-22T18:05:09.769Z,8.70
2018-07-22T18:07:38.158Z,8.50
2018-07-22T18:10:07.352Z,7.33
2018-07-22T18:12:36.420Z,8.00
2018-07-22T18:15:04.686Z,8.40
2018-07-22T18:17:33.420Z,7.07
2018-07-22T18:20:02.784Z,7.83
2018-07-22T18:22:30.932Z,8.20
2018-07-22T18:24:59.108Z,9.47
2018-07-22T18:27:27.291Z,8.50
2018-07-22T18:29:55.432Z,7.47
2018-07-22T18:32:25.616Z,7.90
2018-07-22T18:34:53.783Z,8.10
2018-07-22T18:37:22.105Z,8.00
2018-07-22T18:39:52.005Z,8.27
2018-07-22T18:42:20.191Z,7.60
2018-07-22T18:44:48.343Z,8.50
2018-07-22T18:47:17.276Z,8.60
2018-07-22T18:49:45.492Z,9.33
2018-07-22T18:52:13.719Z,8.83
2018-07-22T18:54:41.964Z,8.80
2018-07-22T18:57:10.948Z,8.97
2018-07-22T18:59:39.359Z,8.73
2018-07-22T19:02:07.477Z,8.93
2018-07-22T19:04:35.660Z,8.63
2018-07-22T19:07:03.902Z,8.80
2018-07-22T19:09:32.308Z,9.47
2018-07-22T19:12:00.454Z,7.70
2018-07-22T19:14:29.542Z,9.53
2018-07-22T19:16:57.707Z,10.00
2018-07-22T19:19:27.344Z,8.83
2018-07-22T19:21:56.304Z,9.00
2018-07-22T19:24:24.498Z,8.97
2018-07-22T19:26:52.616Z,8.60
2018-07-22T19:29:20.916Z,9.63
2018-07-22T19:31:49.056Z,9.00
2018-07-22T19:34:17.240Z,9.60
2018-07-22T19:36:45.498Z,9.40
2018-07-22T19:39:13.674Z,9.13
2018-07-22T19:41:42.220Z,9.30
2018-07-22T19:44:10.404Z,9.40
2018-07-22T19:46:38.620Z,10.20
2018-07-22T19:49:06.799Z,9.60
2018-07-22T19:51:35.285Z,10.27
2018-07-22T19:54:03.636Z,10.10
2018-07-22T19:56:33.002Z,8.97
2018-07-22T19:59:04.362Z,10.00
2018-07-22T20:01:37.364Z,10.60
2018-07-22T20:04:05.546Z,10.07
2018-07-22T20:06:34.070Z,10.40
2018-07-22T20:09:02.260Z,10.87
2018-07-22T20:11:31.424Z,10.77
2018-07-22T20:14:01.778Z,10.80
2018-07-22T20:16:29.980Z,12.13
2018-07-22T20:18:58.220Z,9.90
2018-07-22T20:21:27.752Z,9.80
2018-07-22T20:23:56.040Z,9.60
2018-07-22T20:26:26.348Z,9.13
2018-07-22T20:28:54.571Z,9.03
2018-07-22T20:31:22.503Z,10.00
2018-07-22T20:33:51.468Z,10.80
2018-07-22T20:36:21.026Z,9.57
2018-07-22T20:38:49.486Z,9.73
2018-07-22T20:41:17.817Z,9.90
2018-07-22T20:43:46.788Z,9.97
2018-07-22T20:46:16.908Z,9.20
2018-07-22T20:48:45.380Z,10.10
2018-07-22T20:51:13.285Z,9.67
2018-07-22T20:53:41.474Z,9.87
2018-07-22T20:56:09.860Z,10.47
2018-07-22T20:58:39.115Z,9.53
2018-07-22T21:01:07.667Z,9.20
2018-07-22T21:03:36.322Z,10.50
2018-07-22T21:06:04.845Z,10.17
2018-07-22T21:08:33.881Z,10.17
2018-07-22T21:11:02.069Z,10.00
2018-07-22T21:13:30.256Z,9.60
2018-07-22T21:15:58.732Z,8.93
2018-07-22T21:18:27.597Z,8.53
2018-07-22T21:20:56.279Z,9.60
2018-07-22T21:23:25.320Z,8.70
2018-07-22T21:25:53.449Z,8.53
2018-07-22T21:28:22.142Z,8.93
2018-07-22T21:30:51.441Z,9.63
2018-07-22T21:33:20.560Z,9.83
2018-07-22T21:35:49.016Z,8.90
2018-07-22T21:38:17.724Z,9.10
2018-07-22T21:40:47.413Z,8.60
2018-07-22T21:43:15.913Z,8.70
2018-07-22T21:45:44.407Z,8.43
2018-07-22T21:48:12.928Z,8.90
2018-07-22T21:50:41.130Z,8.37
2018-07-22T21:53:11.264Z,9.23
2018-07-22T21:55:39.432Z,8.70
2018-07-22T21:58:07.648Z,8.90
2018-07-22T22:00:42.043Z,8.67
2018-07-22T22:03:10.747Z,9.03
2018-07-22T22:05:39.008Z,8.27
2018-07-22T22:08:07.973Z,9.27
2018-07-22T22:10:36.766Z,9.63
2018-07-22T22:13:04.971Z,9.80
2018-07-22T22:15:33.547Z,9.07
2018-07-22T22:18:02.873Z,10.30
2018-07-22T22:20:32.744Z,9.67
2018-07-22T22:23:03.778Z,9.47
2018-07-22T22:25:32.932Z,9.63
2018-07-22T22:28:01.079Z,9.07
2018-07-22T22:30:30.168Z,8.77
2018-07-22T22:32:58.323Z,9.97
2018-07-22T22:35:27.075Z,11.07
2018-07-22T22:37:55.234Z,11.07
2018-07-22T22:40:23.948Z,12.00
2018-07-22T22:42:52.151Z,11.03
2018-07-22T22:45:21.072Z,10.20
2018-07-22T22:47:51.411Z,10.77
2018-07-22T22:50:19.524Z,11.07
2018-07-22T22:52:48.436Z,11.40
2018-07-22T22:55:17.291Z,11.83
2018-07-22T22:57:56.876Z,10.80
2018-07-22T23:00:25.089Z,11.20
2018-07-22T23:02:53.883Z,11.47
2018-07-22T23:05:22.008Z,11.17
2018-07-22T23:07:50.971Z,10.93
2018-07-22T23:10:19.141Z,11.00
2018-07-22T23:12:47.955Z,11.13
2018-07-22T23:15:16.428Z,11.73
2018-07-22T23:17:44.604Z,11.20
2018-07-22T23:20:12.808Z,11.43
2018-07-22T23:22:41.892Z,10.57
2018-07-22T23:25:10.671Z,10.90
2018-07-22T23:27:38.823Z,11.07
2018-07-22T23:30:07.041Z,10.63
2018-07-22T23:32:36.119Z,11.40
2018-07-22T23:35:05.716Z,11.30
2018-07-22T23:37:34.928Z,11.07
2018-07-22T23:40:03.072Z,10.70
2018-07-22T23:42:31.252Z,10.90
2018-07-22T23:44:59.403Z,10.77
2018-07-22T23:47:27.628Z,11.60
2018-07-22T23:49:56.304Z,11.10
2018-07-22T23:52:26.394Z,11.53
2018-07-22T23:54:55.039Z,11.27
2018-07-22T23:57:23.863Z,11.93
2018-07-22T23:59:52.963Z,11.80
